sim
Sign-in with your pilot id or email,
or register
Callsign
Passwort

Schedule Details

Flight Number: DLH2203
Departure: Dusseldorf International Airport (EDDL) at 18:55
Arrival: Munich Airport (EDDM) at 20:05
Route: Lufthansa Passenger Schedule. Enter filed route here before submitting Pirep.

Weather Information
Getting current METAR information for EDDL 191050Z 11007KT 060V160 CAVOK 23/04 Q1018 NOSIG
Getting current METAR information for EDDM 191050Z 05006KT 010V110 CAVOK 19/11 Q1019 NOSIG

Schedule Frequency

Route Map